sensor_id;sensor_type;location;lat;lon;timestamp;P1;durP1;ratioP1;P2;durP2;ratioP2
45296;SDS011;31040;51.622;10.420;2022-07-22T00:00:58;8.98;;;7.10;;
45296;SDS011;31040;51.622;10.420;2022-07-22T00:03:25;12.23;;;8.70;;
45296;SDS011;31040;51.622;10.420;2022-07-22T00:05:53;8.70;;;7.80;;
45296;SDS011;31040;51.622;10.420;2022-07-22T00:08:20;13.98;;;8.40;;
45296;SDS011;31040;51.622;10.420;2022-07-22T00:10:47;13.23;;;8.07;;
45296;SDS011;31040;51.622;10.420;2022-07-22T00:13:15;8.27;;;7.32;;
45296;SDS011;31040;51.622;10.420;2022-07-22T00:15:42;12.90;;;7.50;;
45296;SDS011;31040;51.622;10.420;2022-07-22T00:18:10;12.57;;;8.00;;
45296;SDS011;31040;51.622;10.420;2022-07-22T00:20:37;11.30;;;8.00;;
45296;SDS011;31040;51.622;10.420;2022-07-22T00:23:05;16.63;;;9.00;;
45296;SDS011;31040;51.622;10.420;2022-07-22T00:25:32;11.32;;;8.23;;
45296;SDS011;31040;51.622;10.420;2022-07-22T00:28:00;11.43;;;8.48;;
45296;SDS011;31040;51.622;10.420;2022-07-22T00:30:27;13.93;;;8.35;;
45296;SDS011;31040;51.622;10.420;2022-07-22T00:32:54;11.70;;;8.93;;
45296;SDS011;31040;51.622;10.420;2022-07-22T00:35:22;12.20;;;8.95;;
45296;SDS011;31040;51.622;10.420;2022-07-22T00:37:49;9.88;;;8.00;;
45296;SDS011;31040;51.622;10.420;2022-07-22T00:40:16;9.60;;;7.75;;
45296;SDS011;31040;51.622;10.420;2022-07-22T00:42:44;11.02;;;7.97;;
45296;SDS011;31040;51.622;10.420;2022-07-22T00:45:11;9.65;;;7.60;;
45296;SDS011;31040;51.622;10.420;2022-07-22T00:47:39;9.05;;;7.18;;
45296;SDS011;31040;51.622;10.420;2022-07-22T00:50:06;8.80;;;6.90;;
45296;SDS011;31040;51.622;10.420;2022-07-22T00:52:34;10.57;;;8.02;;
45296;SDS011;31040;51.622;10.420;2022-07-22T00:55:03;10.23;;;7.72;;
45296;SDS011;31040;51.622;10.420;2022-07-22T00:57:31;10.15;;;7.50;;
45296;SDS011;31040;51.622;10.420;2022-07-22T00:59:59;9.93;;;7.13;;
45296;SDS011;31040;51.622;10.420;2022-07-22T01:02:26;10.20;;;6.63;;
45296;SDS011;31040;51.622;10.420;2022-07-22T01:04:54;11.82;;;7.53;;
45296;SDS011;31040;51.622;10.420;2022-07-22T01:07:21;9.90;;;7.53;;
45296;SDS011;31040;51.622;10.420;2022-07-22T01:09:49;9.63;;;6.93;;
45296;SDS011;31040;51.622;10.420;2022-07-22T01:12:16;14.63;;;8.30;;
45296;SDS011;31040;51.622;10.420;2022-07-22T01:14:43;8.90;;;6.63;;
45296;SDS011;31040;51.622;10.420;2022-07-22T01:17:11;8.73;;;6.70;;
45296;SDS011;31040;51.622;10.420;2022-07-22T01:19:38;11.38;;;7.32;;
45296;SDS011;31040;51.622;10.420;2022-07-22T01:22:06;8.80;;;6.75;;
45296;SDS011;31040;51.622;10.420;2022-07-22T01:24:33;9.02;;;6.82;;
45296;SDS011;31040;51.622;10.420;2022-07-22T01:27:01;9.60;;;6.32;;
45296;SDS011;31040;51.622;10.420;2022-07-22T01:29:28;8.18;;;6.05;;
45296;SDS011;31040;51.622;10.420;2022-07-22T01:31:56;7.85;;;6.07;;
45296;SDS011;31040;51.622;10.420;2022-07-22T01:34:23;10.65;;;7.35;;
45296;SDS011;31040;51.622;10.420;2022-07-22T01:36:51;8.57;;;6.30;;
45296;SDS011;31040;51.622;10.420;2022-07-22T01:39:19;9.52;;;6.18;;
45296;SDS011;31040;51.622;10.420;2022-07-22T01:41:46;8.93;;;5.20;;
45296;SDS011;31040;51.622;10.420;2022-07-22T01:44:14;7.47;;;6.60;;
45296;SDS011;31040;51.622;10.420;2022-07-22T01:46:42;11.07;;;7.00;;
45296;SDS011;31040;51.622;10.420;2022-07-22T01:49:09;10.90;;;6.85;;
45296;SDS011;31040;51.622;10.420;2022-07-22T01:51:37;7.82;;;5.70;;
45296;SDS011;31040;51.622;10.420;2022-07-22T01:54:04;9.65;;;6.15;;
45296;SDS011;31040;51.622;10.420;2022-07-22T01:56:32;7.18;;;5.43;;
45296;SDS011;31040;51.622;10.420;2022-07-22T01:59:02;7.88;;;5.70;;
45296;SDS011;31040;51.622;10.420;2022-07-22T02:01:30;11.32;;;6.95;;
45296;SDS011;31040;51.622;10.420;2022-07-22T02:03:58;8.32;;;5.18;;
45296;SDS011;31040;51.622;10.420;2022-07-22T02:06:25;5.32;;;4.38;;
45296;SDS011;31040;51.622;10.420;2022-07-22T02:08:53;7.53;;;4.97;;
45296;SDS011;31040;51.622;10.420;2022-07-22T02:11:21;7.10;;;4.28;;
45296;SDS011;31040;51.622;10.420;2022-07-22T02:13:48;7.20;;;4.55;;
45296;SDS011;31040;51.622;10.420;2022-07-22T02:16:15;6.72;;;4.85;;
45296;SDS011;31040;51.622;10.420;2022-07-22T02:18:45;7.28;;;4.72;;
45296;SDS011;31040;51.622;10.420;2022-07-22T02:21:12;6.55;;;4.15;;
45296;SDS011;31040;51.622;10.420;2022-07-22T02:23:40;7.55;;;4.70;;
45296;SDS011;31040;51.622;10.420;2022-07-22T02:26:07;5.85;;;4.40;;
45296;SDS011;31040;51.622;10.420;2022-07-22T02:28:35;6.22;;;3.42;;
45296;SDS011;31040;51.622;10.420;2022-07-22T02:31:02;5.38;;;4.20;;
45296;SDS011;31040;51.622;10.420;2022-07-22T02:33:30;9.20;;;4.50;;
45296;SDS011;31040;51.622;10.420;2022-07-22T02:35:58;5.18;;;4.03;;
45296;SDS011;31040;51.622;10.420;2022-07-22T02:38:26;8.20;;;4.22;;
45296;SDS011;31040;51.622;10.420;2022-07-22T02:40:53;6.30;;;4.35;;
45296;SDS011;31040;51.622;10.420;2022-07-22T02:43:20;4.07;;;3.78;;
45296;SDS011;31040;51.622;10.420;2022-07-22T02:45:48;5.65;;;4.45;;
45296;SDS011;31040;51.622;10.420;2022-07-22T02:48:15;5.90;;;4.32;;
45296;SDS011;31040;51.622;10.420;2022-07-22T02:50:46;6.53;;;4.43;;
45296;SDS011;31040;51.622;10.420;2022-07-22T02:53:14;5.90;;;4.20;;
45296;SDS011;31040;51.622;10.420;2022-07-22T02:55:41;16.20;;;4.15;;
45296;SDS011;31040;51.622;10.420;2022-07-22T02:58:09;6.32;;;4.32;;
45296;SDS011;31040;51.622;10.420;2022-07-22T03:00:36;4.88;;;3.67;;
45296;SDS011;31040;51.622;10.420;2022-07-22T03:03:04;7.93;;;4.07;;
45296;SDS011;31040;51.622;10.420;2022-07-22T03:05:32;10.18;;;4.82;;
45296;SDS011;31040;51.622;10.420;2022-07-22T03:07:59;7.53;;;4.28;;
45296;SDS011;31040;51.622;10.420;2022-07-22T03:10:26;5.88;;;4.90;;
45296;SDS011;31040;51.622;10.420;2022-07-22T03:12:54;11.90;;;3.88;;
45296;SDS011;31040;51.622;10.420;2022-07-22T03:15:21;3.65;;;3.17;;
45296;SDS011;31040;51.622;10.420;2022-07-22T03:17:48;6.90;;;4.47;;
45296;SDS011;31040;51.622;10.420;2022-07-22T03:20:16;5.65;;;4.05;;
45296;SDS011;31040;51.622;10.420;2022-07-22T03:22:43;7.43;;;4.22;;
45296;SDS011;31040;51.622;10.420;2022-07-22T03:25:10;8.50;;;3.67;;
45296;SDS011;31040;51.622;10.420;2022-07-22T03:27:38;7.75;;;4.25;;
45296;SDS011;31040;51.622;10.420;2022-07-22T03:30:05;6.15;;;4.20;;
45296;SDS011;31040;51.622;10.420;2022-07-22T03:32:33;5.60;;;4.18;;
45296;SDS011;31040;51.622;10.420;2022-07-22T03:35:01;9.00;;;3.97;;
45296;SDS011;31040;51.622;10.420;2022-07-22T03:37:30;8.02;;;4.38;;
45296;SDS011;31040;51.622;10.420;2022-07-22T03:39:57;6.05;;;3.40;;
45296;SDS011;31040;51.622;10.420;2022-07-22T03:42:25;6.68;;;4.05;;
45296;SDS011;31040;51.622;10.420;2022-07-22T03:44:52;3.97;;;3.40;;
45296;SDS011;31040;51.622;10.420;2022-07-22T03:47:20;5.47;;;3.80;;
45296;SDS011;31040;51.622;10.420;2022-07-22T03:49:48;5.72;;;3.60;;
45296;SDS011;31040;51.622;10.420;2022-07-22T03:52:15;6.63;;;3.50;;
45296;SDS011;31040;51.622;10.420;2022-07-22T03:54:43;4.95;;;3.90;;
45296;SDS011;31040;51.622;10.420;2022-07-22T03:57:10;6.05;;;4.35;;
45296;SDS011;31040;51.622;10.420;2022-07-22T03:59:38;3.38;;;3.08;;
45296;SDS011;31040;51.622;10.420;2022-07-22T04:02:05;3.90;;;3.50;;
45296;SDS011;31040;51.622;10.420;2022-07-22T04:04:33;7.10;;;4.20;;
45296;SDS011;31040;51.622;10.420;2022-07-22T04:07:00;6.57;;;4.80;;
45296;SDS011;31040;51.622;10.420;2022-07-22T04:09:28;4.78;;;3.65;;
45296;SDS011;31040;51.622;10.420;2022-07-22T04:11:55;6.72;;;3.83;;
45296;SDS011;31040;51.622;10.420;2022-07-22T04:14:22;5.65;;;3.90;;
45296;SDS011;31040;51.622;10.420;2022-07-22T04:16:50;4.57;;;3.30;;
45296;SDS011;31040;51.622;10.420;2022-07-22T04:19:17;3.95;;;3.25;;
45296;SDS011;31040;51.622;10.420;2022-07-22T04:21:45;4.00;;;2.90;;
45296;SDS011;31040;51.622;10.420;2022-07-22T04:24:12;3.08;;;2.35;;
45296;SDS011;31040;51.622;10.420;2022-07-22T04:26:39;4.72;;;2.60;;
45296;SDS011;31040;51.622;10.420;2022-07-22T04:29:07;2.97;;;2.60;;
45296;SDS011;31040;51.622;10.420;2022-07-22T04:31:34;4.85;;;2.33;;
45296;SDS011;31040;51.622;10.420;2022-07-22T04:34:01;2.20;;;2.00;;
45296;SDS011;31040;51.622;10.420;2022-07-22T04:36:29;3.95;;;2.30;;
45296;SDS011;31040;51.622;10.420;2022-07-22T04:38:56;3.45;;;2.25;;
45296;SDS011;31040;51.622;10.420;2022-07-22T04:41:24;4.32;;;2.55;;
45296;SDS011;31040;51.622;10.420;2022-07-22T04:43:52;4.88;;;2.53;;
45296;SDS011;31040;51.622;10.420;2022-07-22T04:46:19;9.80;;;2.22;;
45296;SDS011;31040;51.622;10.420;2022-07-22T04:48:46;11.25;;;2.60;;
45296;SDS011;31040;51.622;10.420;2022-07-22T04:51:14;6.82;;;2.00;;
45296;SDS011;31040;51.622;10.420;2022-07-22T04:53:41;3.40;;;2.15;;
45296;SDS011;31040;51.622;10.420;2022-07-22T04:56:15;4.45;;;2.10;;
45296;SDS011;31040;51.622;10.420;2022-07-22T04:58:42;5.50;;;1.85;;
45296;SDS011;31040;51.622;10.420;2022-07-22T05:01:09;2.83;;;1.58;;
45296;SDS011;31040;51.622;10.420;2022-07-22T05:03:37;2.08;;;1.10;;
45296;SDS011;31040;51.622;10.420;2022-07-22T05:06:05;1.10;;;0.90;;
45296;SDS011;31040;51.622;10.420;2022-07-22T05:08:32;1.52;;;1.27;;
45296;SDS011;31040;51.622;10.420;2022-07-22T05:11:00;1.90;;;1.35;;
45296;SDS011;31040;51.622;10.420;2022-07-22T05:13:27;4.15;;;1.48;;
45296;SDS011;31040;51.622;10.420;2022-07-22T05:15:55;5.80;;;1.48;;
45296;SDS011;31040;51.622;10.420;2022-07-22T05:18:22;4.63;;;1.67;;
45296;SDS011;31040;51.622;10.420;2022-07-22T05:20:49;7.50;;;1.70;;
45296;SDS011;31040;51.622;10.420;2022-07-22T05:23:17;6.45;;;1.80;;
45296;SDS011;31040;51.622;10.420;2022-07-22T05:25:44;6.25;;;1.40;;
45296;SDS011;31040;51.622;10.420;2022-07-22T05:28:11;6.13;;;1.48;;
45296;SDS011;31040;51.622;10.420;2022-07-22T05:30:39;3.95;;;1.35;;
45296;SDS011;31040;51.622;10.420;2022-07-22T05:33:06;3.58;;;1.20;;
45296;SDS011;31040;51.622;10.420;2022-07-22T05:35:33;4.53;;;1.33;;
45296;SDS011;31040;51.622;10.420;2022-07-22T05:38:01;4.53;;;2.15;;
45296;SDS011;31040;51.622;10.420;2022-07-22T05:40:28;3.92;;;1.33;;
45296;SDS011;31040;51.622;10.420;2022-07-22T05:42:56;5.07;;;1.50;;
45296;SDS011;31040;51.622;10.420;2022-07-22T05:45:23;2.60;;;1.35;;
45296;SDS011;31040;51.622;10.420;2022-07-22T05:47:50;3.30;;;1.60;;
45296;SDS011;31040;51.622;10.420;2022-07-22T05:50:18;6.30;;;1.98;;
45296;SDS011;31040;51.622;10.420;2022-07-22T05:52:45;14.60;;;2.72;;
45296;SDS011;31040;51.622;10.420;2022-07-22T05:55:13;8.38;;;1.88;;
45296;SDS011;31040;51.622;10.420;2022-07-22T05:57:40;7.53;;;2.75;;
45296;SDS011;31040;51.622;10.420;2022-07-22T06:00:08;3.80;;;2.17;;
45296;SDS011;31040;51.622;10.420;2022-07-22T06:02:35;3.10;;;2.53;;
45296;SDS011;31040;51.622;10.420;2022-07-22T06:05:03;19.73;;;3.63;;
45296;SDS011;31040;51.622;10.420;2022-07-22T06:07:30;1.67;;;1.58;;
45296;SDS011;31040;51.622;10.420;2022-07-22T06:09:58;2.65;;;1.67;;
45296;SDS011;31040;51.622;10.420;2022-07-22T06:12:25;1.83;;;1.73;;
45296;SDS011;31040;51.622;10.420;2022-07-22T06:14:53;2.20;;;2.00;;
45296;SDS011;31040;51.622;10.420;2022-07-22T06:17:20;2.60;;;2.20;;
45296;SDS011;31040;51.622;10.420;2022-07-22T06:19:48;6.28;;;3.30;;
45296;SDS011;31040;51.622;10.420;2022-07-22T06:22:16;3.28;;;2.90;;
45296;SDS011;31040;51.622;10.420;2022-07-22T06:24:44;3.00;;;2.70;;
45296;SDS011;31040;51.622;10.420;2022-07-22T06:27:14;3.55;;;3.25;;
45296;SDS011;31040;51.622;10.420;2022-07-22T06:29:41;3.45;;;3.00;;
45296;SDS011;31040;51.622;10.420;2022-07-22T06:32:09;4.60;;;2.80;;
45296;SDS011;31040;51.622;10.420;2022-07-22T06:34:36;4.43;;;3.55;;
45296;SDS011;31040;51.622;10.420;2022-07-22T06:37:04;3.22;;;2.72;;
45296;SDS011;31040;51.622;10.420;2022-07-22T06:39:31;3.67;;;3.33;;
45296;SDS011;31040;51.622;10.420;2022-07-22T06:41:59;4.70;;;3.45;;
45296;SDS011;31040;51.622;10.420;2022-07-22T06:44:27;5.20;;;4.35;;
45296;SDS011;31040;51.622;10.420;2022-07-22T06:46:54;4.50;;;3.88;;
45296;SDS011;31040;51.622;10.420;2022-07-22T06:49:22;4.93;;;3.72;;
45296;SDS011;31040;51.622;10.420;2022-07-22T06:51:50;4.30;;;3.88;;
45296;SDS011;31040;51.622;10.420;2022-07-22T06:54:17;7.93;;;3.50;;
45296;SDS011;31040;51.622;10.420;2022-07-22T06:56:45;3.30;;;3.00;;
45296;SDS011;31040;51.622;10.420;2022-07-22T06:59:12;5.30;;;3.15;;
45296;SDS011;31040;51.622;10.420;2022-07-22T07:01:39;3.47;;;3.13;;
45296;SDS011;31040;51.622;10.420;2022-07-22T07:04:07;4.30;;;2.83;;
45296;SDS011;31040;51.622;10.420;2022-07-22T07:06:35;3.35;;;3.05;;
45296;SDS011;31040;51.622;10.420;2022-07-22T07:09:02;3.78;;;3.47;;
45296;SDS011;31040;51.622;10.420;2022-07-22T07:11:30;3.30;;;2.97;;
45296;SDS011;31040;51.622;10.420;2022-07-22T07:13:57;3.67;;;3.38;;
45296;SDS011;31040;51.622;10.420;2022-07-22T07:16:25;4.10;;;3.10;;
45296;SDS011;31040;51.622;10.420;2022-07-22T07:18:52;3.30;;;3.00;;
45296;SDS011;31040;51.622;10.420;2022-07-22T07:21:20;4.28;;;3.60;;
45296;SDS011;31040;51.622;10.420;2022-07-22T07:23:48;3.67;;;3.30;;
45296;SDS011;31040;51.622;10.420;2022-07-22T07:26:15;3.63;;;2.85;;
45296;SDS011;31040;51.622;10.420;2022-07-22T07:28:43;3.42;;;3.05;;
45296;SDS011;31040;51.622;10.420;2022-07-22T07:31:11;3.72;;;3.42;;
45296;SDS011;31040;51.622;10.420;2022-07-22T07:33:39;3.42;;;3.13;;
45296;SDS011;31040;51.622;10.420;2022-07-22T07:36:06;3.60;;;2.83;;
45296;SDS011;31040;51.622;10.420;2022-07-22T07:38:33;3.67;;;3.38;;
45296;SDS011;31040;51.622;10.420;2022-07-22T07:41:02;3.22;;;2.92;;
45296;SDS011;31040;51.622;10.420;2022-07-22T07:43:29;3.03;;;2.80;;
45296;SDS011;31040;51.622;10.420;2022-07-22T07:45:56;3.00;;;2.80;;
45296;SDS011;31040;51.622;10.420;2022-07-22T07:48:24;3.80;;;3.25;;
45296;SDS011;31040;51.622;10.420;2022-07-22T07:50:51;4.85;;;3.17;;
45296;SDS011;31040;51.622;10.420;2022-07-22T07:53:19;3.95;;;2.95;;
45296;SDS011;31040;51.622;10.420;2022-07-22T07:55:46;3.00;;;2.75;;
45296;SDS011;31040;51.622;10.420;2022-07-22T07:58:14;2.90;;;2.65;;
45296;SDS011;31040;51.622;10.420;2022-07-22T08:00:41;2.90;;;2.70;;
45296;SDS011;31040;51.622;10.420;2022-07-22T08:03:09;2.90;;;2.70;;
45296;SDS011;31040;51.622;10.420;2022-07-22T08:05:37;3.60;;;2.67;;
45296;SDS011;31040;51.622;10.420;2022-07-22T08:08:08;3.65;;;3.35;;
45296;SDS011;31040;51.622;10.420;2022-07-22T08:10:40;4.05;;;2.65;;
45296;SDS011;31040;51.622;10.420;2022-07-22T08:13:25;3.33;;;2.47;;
45296;SDS011;31040;51.622;10.420;2022-07-22T08:15:53;2.22;;;2.03;;
45296;SDS011;31040;51.622;10.420;2022-07-22T08:18:20;2.50;;;2.30;;
45296;SDS011;31040;51.622;10.420;2022-07-22T08:20:48;2.30;;;2.10;;
45296;SDS011;31040;51.622;10.420;2022-07-22T08:23:15;1.98;;;1.88;;
45296;SDS011;31040;51.622;10.420;2022-07-22T08:25:43;1.77;;;1.67;;
45296;SDS011;31040;51.622;10.420;2022-07-22T08:28:10;1.90;;;1.80;;
45296;SDS011;31040;51.622;10.420;2022-07-22T08:30:38;2.47;;;2.28;;
45296;SDS011;31040;51.622;10.420;2022-07-22T08:33:06;2.47;;;2.28;;
45296;SDS011;31040;51.622;10.420;2022-07-22T08:35:35;3.13;;;2.30;;
45296;SDS011;31040;51.622;10.420;2022-07-22T08:38:03;1.92;;;1.83;;
45296;SDS011;31040;51.622;10.420;2022-07-22T08:40:30;2.65;;;2.17;;
45296;SDS011;31040;51.622;10.420;2022-07-22T08:42:58;3.42;;;2.63;;
45296;SDS011;31040;51.622;10.420;2022-07-22T08:45:30;2.38;;;2.17;;
45296;SDS011;31040;51.622;10.420;2022-07-22T08:47:58;6.03;;;2.35;;
45296;SDS011;31040;51.622;10.420;2022-07-22T08:50:29;6.38;;;2.80;;
45296;SDS011;31040;51.622;10.420;2022-07-22T08:52:57;6.30;;;2.10;;
45296;SDS011;31040;51.622;10.420;2022-07-22T08:55:27;3.10;;;2.25;;
45296;SDS011;31040;51.622;10.420;2022-07-22T08:57:55;2.47;;;1.60;;
45296;SDS011;31040;51.622;10.420;2022-07-22T09:00:22;2.50;;;1.92;;
45296;SDS011;31040;51.622;10.420;2022-07-22T09:02:50;1.20;;;1.10;;
45296;SDS011;31040;51.622;10.420;2022-07-22T09:05:17;2.22;;;1.30;;
45296;SDS011;31040;51.622;10.420;2022-07-22T09:08:08;1.10;;;1.00;;
45296;SDS011;31040;51.622;10.420;2022-07-22T09:10:35;1.40;;;1.30;;
45296;SDS011;31040;51.622;10.420;2022-07-22T09:13:04;2.17;;;1.30;;
45296;SDS011;31040;51.622;10.420;2022-07-22T09:15:36;2.22;;;1.75;;
45296;SDS011;31040;51.622;10.420;2022-07-22T09:18:04;1.45;;;1.35;;
45296;SDS011;31040;51.622;10.420;2022-07-22T09:20:36;1.50;;;1.40;;
45296;SDS011;31040;51.622;10.420;2022-07-22T09:23:09;1.88;;;1.75;;
45296;SDS011;31040;51.622;10.420;2022-07-22T09:25:39;1.60;;;1.50;;
45296;SDS011;31040;51.622;10.420;2022-07-22T09:30:38;2.13;;;1.95;;
45296;SDS011;31040;51.622;10.420;2022-07-22T09:33:07;2.65;;;2.45;;
45296;SDS011;31040;51.622;10.420;2022-07-22T09:35:35;2.35;;;2.15;;
45296;SDS011;31040;51.622;10.420;2022-07-22T09:38:05;2.47;;;1.70;;
45296;SDS011;31040;51.622;10.420;2022-07-22T09:40:34;1.40;;;1.30;;
45296;SDS011;31040;51.622;10.420;2022-07-22T09:43:04;1.50;;;1.40;;
45296;SDS011;31040;51.622;10.420;2022-07-22T09:45:32;1.73;;;1.63;;
45296;SDS011;31040;51.622;10.420;2022-07-22T09:48:00;1.73;;;1.40;;
45296;SDS011;31040;51.622;10.420;2022-07-22T09:50:29;1.75;;;1.65;;
45296;SDS011;31040;51.622;10.420;2022-07-22T09:52:58;1.95;;;1.77;;
45296;SDS011;31040;51.622;10.420;2022-07-22T09:55:29;2.45;;;1.55;;
45296;SDS011;31040;51.622;10.420;2022-07-22T09:58:00;3.08;;;2.20;;
45296;SDS011;31040;51.622;10.420;2022-07-22T10:00:27;1.58;;;1.48;;
45296;SDS011;31040;51.622;10.420;2022-07-22T10:02:58;2.05;;;1.83;;
45296;SDS011;31040;51.622;10.420;2022-07-22T10:05:28;3.35;;;2.22;;
45296;SDS011;31040;51.622;10.420;2022-07-22T10:07:56;2.35;;;2.15;;
45296;SDS011;31040;51.622;10.420;2022-07-22T10:10:25;1.85;;;1.75;;
45296;SDS011;31040;51.622;10.420;2022-07-22T10:12:54;2.35;;;2.10;;
45296;SDS011;31040;51.622;10.420;2022-07-22T10:15:22;2.75;;;1.95;;
45296;SDS011;31040;51.622;10.420;2022-07-22T10:18:00;2.80;;;1.90;;
45296;SDS011;31040;51.622;10.420;2022-07-22T10:20:30;2.38;;;2.17;;
45296;SDS011;31040;51.622;10.420;2022-07-22T10:23:00;2.22;;;2.13;;
45296;SDS011;31040;51.622;10.420;2022-07-22T10:30:50;3.42;;;2.28;;
45296;SDS011;31040;51.622;10.420;2022-07-22T10:33:19;3.83;;;2.25;;
45296;SDS011;31040;51.622;10.420;2022-07-22T10:35:58;2.40;;;2.25;;
45296;SDS011;31040;51.622;10.420;2022-07-22T10:38:26;2.13;;;1.83;;
45296;SDS011;31040;51.622;10.420;2022-07-22T10:40:55;2.40;;;2.20;;
45296;SDS011;31040;51.622;10.420;2022-07-22T10:43:25;2.47;;;2.28;;
45296;SDS011;31040;51.622;10.420;2022-07-22T10:46:00;1.80;;;1.70;;
45296;SDS011;31040;51.622;10.420;2022-07-22T10:51:07;2.38;;;2.20;;
45296;SDS011;31040;51.622;10.420;2022-07-22T11:01:07;2.80;;;2.60;;
45296;SDS011;31040;51.622;10.420;2022-07-22T11:03:36;2.92;;;2.60;;
45296;SDS011;31040;51.622;10.420;2022-07-22T11:08:41;2.67;;;2.47;;
45296;SDS011;31040;51.622;10.420;2022-07-22T11:11:09;2.97;;;2.78;;
45296;SDS011;31040;51.622;10.420;2022-07-22T11:13:38;2.92;;;2.72;;
45296;SDS011;31040;51.622;10.420;2022-07-22T11:21:23;3.22;;;2.88;;
45296;SDS011;31040;51.622;10.420;2022-07-22T11:23:56;2.75;;;2.47;;
45296;SDS011;31040;51.622;10.420;2022-07-22T11:26:35;3.05;;;2.85;;
45296;SDS011;31040;51.622;10.420;2022-07-22T11:29:03;2.92;;;2.72;;
45296;SDS011;31040;51.622;10.420;2022-07-22T11:31:31;2.92;;;2.72;;
45296;SDS011;31040;51.622;10.420;2022-07-22T11:34:05;2.88;;;2.58;;
45296;SDS011;31040;51.622;10.420;2022-07-22T11:36:34;4.07;;;3.63;;
45296;SDS011;31040;51.622;10.420;2022-07-22T11:39:02;3.33;;;3.00;;
45296;SDS011;31040;51.622;10.420;2022-07-22T11:41:30;3.90;;;3.10;;
45296;SDS011;31040;51.622;10.420;2022-07-22T11:43:58;4.28;;;3.88;;
45296;SDS011;31040;51.622;10.420;2022-07-22T11:46:26;3.33;;;3.03;;
45296;SDS011;31040;51.622;10.420;2022-07-22T11:48:55;3.10;;;2.80;;
45296;SDS011;31040;51.622;10.420;2022-07-22T11:51:27;4.10;;;3.42;;
45296;SDS011;31040;51.622;10.420;2022-07-22T11:53:55;3.33;;;3.03;;
45296;SDS011;31040;51.622;10.420;2022-07-22T11:56:24;3.17;;;2.95;;
45296;SDS011;31040;51.622;10.420;2022-07-22T11:58:52;3.88;;;3.20;;
45296;SDS011;31040;51.622;10.420;2022-07-22T12:01:24;3.35;;;2.90;;
45296;SDS011;31040;51.622;10.420;2022-07-22T12:03:58;39.67;;;6.22;;
45296;SDS011;31040;51.622;10.420;2022-07-22T12:06:30;3.50;;;2.75;;
45296;SDS011;31040;51.622;10.420;2022-07-22T12:11:39;3.78;;;2.70;;
45296;SDS011;31040;51.622;10.420;2022-07-22T12:14:08;3.42;;;3.13;;
45296;SDS011;31040;51.622;10.420;2022-07-22T12:16:41;3.33;;;3.13;;
45296;SDS011;31040;51.622;10.420;2022-07-22T12:19:10;3.15;;;2.90;;
45296;SDS011;31040;51.622;10.420;2022-07-22T12:21:54;4.15;;;3.55;;
45296;SDS011;31040;51.622;10.420;2022-07-22T12:24:26;4.93;;;3.22;;
45296;SDS011;31040;51.622;10.420;2022-07-22T12:26:55;3.28;;;2.83;;
45296;SDS011;31040;51.622;10.420;2022-07-22T12:29:24;4.15;;;3.67;;
45296;SDS011;31040;51.622;10.420;2022-07-22T12:32:05;3.05;;;2.85;;
45296;SDS011;31040;51.622;10.420;2022-07-22T12:34:34;4.38;;;3.20;;
45296;SDS011;31040;51.622;10.420;2022-07-22T12:37:45;3.60;;;3.22;;
45296;SDS011;31040;51.622;10.420;2022-07-22T12:42:44;3.20;;;2.92;;
45296;SDS011;31040;51.622;10.420;2022-07-22T12:45:13;3.03;;;2.83;;
45296;SDS011;31040;51.622;10.420;2022-07-22T12:47:52;2.78;;;2.58;;
45296;SDS011;31040;51.622;10.420;2022-07-22T12:50:29;3.15;;;2.95;;
45296;SDS011;31040;51.622;10.420;2022-07-22T12:53:01;3.38;;;3.08;;
45296;SDS011;31040;51.622;10.420;2022-07-22T12:55:47;6.47;;;3.42;;
45296;SDS011;31040;51.622;10.420;2022-07-22T12:58:18;3.25;;;2.95;;
45296;SDS011;31040;51.622;10.420;2022-07-22T13:00:48;3.75;;;3.45;;
45296;SDS011;31040;51.622;10.420;2022-07-22T13:03:26;4.10;;;3.80;;
45296;SDS011;31040;51.622;10.420;2022-07-22T13:05:55;4.40;;;3.42;;
45296;SDS011;31040;51.622;10.420;2022-07-22T13:08:24;4.30;;;4.00;;
45296;SDS011;31040;51.622;10.420;2022-07-22T13:11:01;4.57;;;3.58;;
45296;SDS011;31040;51.622;10.420;2022-07-22T13:13:29;3.97;;;3.60;;
45296;SDS011;31040;51.622;10.420;2022-07-22T13:15:56;4.10;;;3.80;;
45296;SDS011;31040;51.622;10.420;2022-07-22T13:18:24;3.50;;;3.30;;
45296;SDS011;31040;51.622;10.420;2022-07-22T13:20:52;4.10;;;3.47;;
45296;SDS011;31040;51.622;10.420;2022-07-22T13:23:20;3.08;;;2.88;;
45296;SDS011;31040;51.622;10.420;2022-07-22T13:25:47;4.00;;;3.67;;
45296;SDS011;31040;51.622;10.420;2022-07-22T13:28:20;3.65;;;3.10;;
45296;SDS011;31040;51.622;10.420;2022-07-22T13:30:48;4.00;;;3.60;;
45296;SDS011;31040;51.622;10.420;2022-07-22T13:33:15;3.85;;;3.55;;
45296;SDS011;31040;51.622;10.420;2022-07-22T13:35:43;4.10;;;3.80;;
45296;SDS011;31040;51.622;10.420;2022-07-22T13:38:11;3.75;;;3.45;;
45296;SDS011;31040;51.622;10.420;2022-07-22T13:40:44;3.17;;;2.97;;
45296;SDS011;31040;51.622;10.420;2022-07-22T13:43:18;3.97;;;3.67;;
45296;SDS011;31040;51.622;10.420;2022-07-22T13:45:52;3.45;;;3.25;;
45296;SDS011;31040;51.622;10.420;2022-07-22T13:48:22;3.85;;;3.45;;
45296;SDS011;31040;51.622;10.420;2022-07-22T13:50:50;3.65;;;3.22;;
45296;SDS011;31040;51.622;10.420;2022-07-22T13:53:17;3.42;;;3.13;;
45296;SDS011;31040;51.622;10.420;2022-07-22T13:55:45;3.80;;;3.50;;
45296;SDS011;31040;51.622;10.420;2022-07-22T13:58:12;3.95;;;3.55;;
45296;SDS011;31040;51.622;10.420;2022-07-22T14:00:40;4.55;;;3.72;;
45296;SDS011;31040;51.622;10.420;2022-07-22T14:03:07;3.90;;;3.60;;
45296;SDS011;31040;51.622;10.420;2022-07-22T14:05:35;3.97;;;3.67;;
45296;SDS011;31040;51.622;10.420;2022-07-22T14:08:03;4.13;;;3.83;;
45296;SDS011;31040;51.622;10.420;2022-07-22T14:10:30;4.05;;;3.75;;
45296;SDS011;31040;51.622;10.420;2022-07-22T14:12:58;4.25;;;3.42;;
45296;SDS011;31040;51.622;10.420;2022-07-22T14:15:26;3.58;;;3.28;;
45296;SDS011;31040;51.622;10.420;2022-07-22T14:17:55;4.97;;;3.65;;
45296;SDS011;31040;51.622;10.420;2022-07-22T14:20:23;4.60;;;4.15;;
45296;SDS011;31040;51.622;10.420;2022-07-22T14:22:51;5.10;;;3.47;;
45296;SDS011;31040;51.622;10.420;2022-07-22T14:25:18;4.47;;;3.90;;
45296;SDS011;31040;51.622;10.420;2022-07-22T14:27:47;4.18;;;3.55;;
45296;SDS011;31040;51.622;10.420;2022-07-22T14:30:34;4.80;;;3.70;;
45296;SDS011;31040;51.622;10.420;2022-07-22T14:33:03;4.15;;;3.50;;
45296;SDS011;31040;51.622;10.420;2022-07-22T14:35:31;4.10;;;3.70;;
45296;SDS011;31040;51.622;10.420;2022-07-22T14:38:01;5.40;;;4.00;;
45296;SDS011;31040;51.622;10.420;2022-07-22T14:40:28;4.20;;;3.78;;
45296;SDS011;31040;51.622;10.420;2022-07-22T14:42:56;3.50;;;3.30;;
45296;SDS011;31040;51.622;10.420;2022-07-22T14:45:43;4.18;;;3.88;;
45296;SDS011;31040;51.622;10.420;2022-07-22T14:48:10;3.88;;;3.45;;
45296;SDS011;31040;51.622;10.420;2022-07-22T14:50:38;5.07;;;4.57;;
45296;SDS011;31040;51.622;10.420;2022-07-22T14:53:06;4.03;;;3.63;;
45296;SDS011;31040;51.622;10.420;2022-07-22T14:55:33;4.03;;;3.70;;
45296;SDS011;31040;51.622;10.420;2022-07-22T14:58:00;9.07;;;4.72;;
45296;SDS011;31040;51.622;10.420;2022-07-22T15:00:28;3.85;;;3.50;;
45296;SDS011;31040;51.622;10.420;2022-07-22T15:02:55;4.05;;;3.75;;
45296;SDS011;31040;51.622;10.420;2022-07-22T15:05:23;5.45;;;3.85;;
45296;SDS011;31040;51.622;10.420;2022-07-22T15:07:51;4.03;;;3.72;;
45296;SDS011;31040;51.622;10.420;2022-07-22T15:10:18;4.03;;;3.72;;
45296;SDS011;31040;51.622;10.420;2022-07-22T15:12:46;4.38;;;3.97;;